Delta Virtual Airport Information Service

Seattle Tacoma International Airport

ICAO: KSEA Country: United States
Latitude: 47.4482 Longitude: -122.311
Latest Arrival : ASA247 (KGEG-KSEA) Latest Departure : DAL128 (A) (KSEA-KLAX)


WX CaptureLIVE
Data provided by noaa.gov | Fetched at 23:24:58

METAR : KSEA 120353Z 36009KT 10SM BKN200 17/04 A3014 RMK AO2 SLP212 T01670039

TAF : KSEA 120300Z 1203/1306 36007KT P6SM BKN200 FM120600 02005KT P6SM BKN100 OVC200 FM121300 21004KT P6SM BKN080 OVC120 FM121800 30007KT P6SM BKN060 OVC100


Runway Data for KSEA
Data provided by openaviationdata.com

Runway ID Mag Var Hdg Length Elevation Surface ILS Freq ILS Id ILS Slope
16L 19 161° 11894 ft 362 ft Asphalt 110.3 ISNQ 3
16R 19 161° 9421 ft 362 ft Concrete 111.7 ISZI 3
34L 19 341° 9421 ft 362 ft Concrete 111.7 ITUC 3
34R 19 341° 11894 ft 362 ft Asphalt 110.3 ISEA 2

Seattle Tacoma International Airport, United States
Use only for reference purposes



Not for navigational purposes.